Time;durP1;ratioP1;P1;durP2;ratioP2;P2;SDS_P1;SDS_P2;PMS_P1;PMS_P2;Temp;Humidity;BMP_temperature;BMP_pressure;BME280_temperature;BME280_humidity;BME280_pressure;Samples;Min_cycle;Max_cycle;Signal;HPM_P1;HPM_P2
2023/07/24 00:01:11;;;;;;;;;;;;;;;15.77;48.89;94781.31;5024370;28;20294;-68
2023/07/24 00:03:36;;;;;;;;;;;;;;;15.88;51.07;94779.72;5024077;28;19929;-68
2023/07/24 00:06:02;;;;;;;;;;;;;;;15.72;52.11;94779.34;5019537;28;19921;-68
2023/07/24 00:08:27;;;;;;;;;;;;;;;15.73;52.05;94780.97;5024181;28;20408;-68
2023/07/24 00:10:52;;;;;;;;;;;;;;;15.81;51.32;94771.75;5024233;28;19975;-68
2023/07/24 00:13:18;;;;;;;;;;;;;;;16.01;51.71;94773.28;5024211;28;19924;-68
2023/07/24 00:15:43;;;;;;;;;;;;;;;16.05;50.98;94773.66;5023874;28;20290;-68
2023/07/24 00:18:08;;;;;;;;;;;;;;;15.91;51.62;94768.50;5023622;28;19917;-68
2023/07/24 00:20:33;;;;;;;;;;;;;;;15.92;51.75;94772.00;5024181;28;19933;-67
2023/07/24 00:22:59;;;;;;;;;;;;;;;15.95;51.69;94771.53;5023648;28;20604;-68
2023/07/24 00:25:24;;;;;;;;;;;;;;;16.11;51.25;94759.28;5023865;28;19975;-69
2023/07/24 00:27:49;;;;;;;;;;;;;;;15.80;52.40;94747.84;5024088;28;19921;-68
2023/07/24 00:30:14;;;;;;;;;;;;;;;15.83;52.34;94752.75;5022914;28;19929;-69
2023/07/24 00:32:40;;;;;;;;;;;;;;;15.60;52.89;94751.66;5023755;28;20321;-68
2023/07/24 00:35:05;;;;;;;;;;;;;;;15.43;53.60;94743.47;5023411;28;20597;-68
2023/07/24 00:37:30;;;;;;;;;;;;;;;15.75;52.87;94740.50;5024346;28;20028;-67
2023/07/24 00:39:56;;;;;;;;;;;;;;;15.99;52.16;94735.97;5023567;28;19921;-69
2023/07/24 00:42:21;;;;;;;;;;;;;;;15.94;52.16;94753.81;5022628;28;19925;-68
2023/07/24 00:44:46;;;;;;;;;;;;;;;14.69;55.91;94753.31;5024313;28;19917;-67
2023/07/24 00:47:12;;;;;;;;;;;;;;;15.23;54.77;94761.47;5022648;28;19975;-70
2023/07/24 00:49:37;;;;;;;;;;;;;;;15.50;53.78;94779.03;5023229;28;19971;-69
2023/07/24 00:52:02;;;;;;;;;;;;;;;15.83;52.61;94771.53;5017156;28;19922;-67
2023/07/24 00:54:28;;;;;;;;;;;;;;;15.80;52.45;94763.94;5022364;28;20006;-68
2023/07/24 00:56:53;;;;;;;;;;;;;;;15.74;52.39;94761.13;5023403;28;19991;-67
2023/07/24 00:59:18;;;;;;;;;;;;;;;15.83;52.32;94753.56;5021212;28;19929;-67
2023/07/24 01:01:43;;;;;;;;;;;;;;;15.89;52.01;94751.81;5023613;28;19917;-68
2023/07/24 01:04:09;;;;;;;;;;;;;;;15.90;52.05;94744.59;5022054;28;19984;-67
2023/07/24 01:06:34;;;;;;;;;;;;;;;15.88;52.16;94744.81;5017392;28;19921;-67
2023/07/24 01:08:59;;;;;;;;;;;;;;;15.87;51.83;94745.84;5023383;28;20224;-67
2023/07/24 01:11:25;;;;;;;;;;;;;;;15.92;51.97;94742.47;5023649;28;20451;-68
2023/07/24 01:14:20;;;;;;;;;;;;;;;15.96;51.68;94740.97;5022133;28;19925;-67
2023/07/24 01:16:46;;;;;;;;;;;;;;;15.85;51.67;94750.66;5021020;28;20082;-67
2023/07/24 01:19:12;;;;;;;;;;;;;;;15.94;51.70;94748.44;5018689;28;20547;-68
2023/07/24 01:21:57;;;;;;;;;;;;;;;15.43;52.68;94744.28;5022119;28;20985;-68
2023/07/24 01:24:49;;;;;;;;;;;;;;;15.86;51.84;94746.91;5022153;28;19921;-67
2023/07/24 01:27:21;;;;;;;;;;;;;;;15.87;51.68;94740.50;5010022;28;19979;-68
2023/07/24 01:29:46;;;;;;;;;;;;;;;15.97;51.36;94731.84;5021108;28;19932;-67
2023/07/24 01:32:11;;;;;;;;;;;;;;;15.39;52.60;94731.53;5021407;28;19925;-67
2023/07/24 01:34:37;;;;;;;;;;;;;;;15.58;52.24;94713.53;5019807;28;19925;-67
2023/07/24 01:37:02;;;;;;;;;;;;;;;15.75;51.73;94719.84;5022108;28;20013;-67
2023/07/24 01:39:27;;;;;;;;;;;;;;;15.71;51.69;94724.03;5023097;28;19917;-68
2023/07/24 01:41:52;;;;;;;;;;;;;;;15.85;51.29;94713.88;5021214;28;19943;-67
2023/07/24 01:44:18;;;;;;;;;;;;;;;15.81;51.28;94712.72;5023316;28;19978;-67
2023/07/24 01:46:43;;;;;;;;;;;;;;;15.88;50.22;94716.09;5023044;28;19949;-68
2023/07/24 01:49:08;;;;;;;;;;;;;;;15.81;50.37;94706.56;5020647;28;19921;-68
2023/07/24 01:51:33;;;;;;;;;;;;;;;15.78;49.87;94699.78;5022829;28;19928;-68
2023/07/24 01:53:59;;;;;;;;;;;;;;;15.83;48.67;94694.53;5022575;28;19917;-66
2023/07/24 01:56:24;;;;;;;;;;;;;;;15.93;48.74;94699.31;5023068;28;19932;-67
2023/07/24 01:58:49;;;;;;;;;;;;;;;15.92;47.63;94691.50;5022192;28;19921;-67
2023/07/24 02:01:14;;;;;;;;;;;;;;;15.89;47.26;94679.38;5022817;28;20015;-67
2023/07/24 02:03:40;;;;;;;;;;;;;;;15.87;47.89;94668.03;5022829;28;19929;-68
2023/07/24 02:06:05;;;;;;;;;;;;;;;15.91;49.76;94674.56;5018996;28;20421;-67
2023/07/24 02:08:30;;;;;;;;;;;;;;;15.87;49.43;94676.09;5023011;28;19917;-67
2023/07/24 02:10:55;;;;;;;;;;;;;;;15.94;49.22;94678.66;5022507;28;20370;-68
2023/07/24 02:13:21;;;;;;;;;;;;;;;15.32;52.34;94684.22;5022375;28;19967;-68
2023/07/24 02:15:46;;;;;;;;;;;;;;;15.59;51.57;94678.44;5020926;28;19932;-68
2023/07/24 02:18:11;;;;;;;;;;;;;;;15.63;50.72;94677.97;5021801;28;19923;-66
2023/07/24 02:20:36;;;;;;;;;;;;;;;15.74;49.58;94672.59;5021401;28;19917;-68
2023/07/24 02:23:02;;;;;;;;;;;;;;;15.90;49.94;94669.44;5022025;28;19921;-68
2023/07/24 02:25:27;;;;;;;;;;;;;;;16.06;50.68;94673.25;5022020;28;19921;-67
2023/07/24 02:27:52;;;;;;;;;;;;;;;16.09;49.41;94670.13;5022161;28;20458;-67
2023/07/24 02:30:17;;;;;;;;;;;;;;;16.18;49.77;94673.25;5021789;28;19917;-68
2023/07/24 02:32:43;;;;;;;;;;;;;;;16.20;50.18;94680.00;5022446;28;19928;-67
2023/07/24 02:35:08;;;;;;;;;;;;;;;16.18;50.24;94675.94;5021859;28;20044;-68
2023/07/24 02:37:33;;;;;;;;;;;;;;;16.10;50.28;94677.94;5022343;28;19925;-68
2023/07/24 02:39:58;;;;;;;;;;;;;;;16.15;49.59;94679.91;5021637;28;20313;-67
2023/07/24 02:42:23;;;;;;;;;;;;;;;15.90;50.82;94675.63;5021057;28;19921;-68
2023/07/24 02:44:49;;;;;;;;;;;;;;;15.55;52.01;94671.06;5021971;28;19917;-66
2023/07/24 02:47:14;;;;;;;;;;;;;;;15.82;51.31;94676.81;5021538;28;19921;-67
2023/07/24 02:49:39;;;;;;;;;;;;;;;15.86;50.96;94671.78;5019273;28;19928;-68
2023/07/24 02:52:05;;;;;;;;;;;;;;;16.04;50.34;94680.75;5020935;28;19987;-67
2023/07/24 02:54:30;;;;;;;;;;;;;;;15.90;50.51;94689.03;5021113;28;19971;-66
2023/07/24 02:56:55;;;;;;;;;;;;;;;15.82;51.19;94684.03;5021416;28;19929;-67
2023/07/24 02:59:20;;;;;;;;;;;;;;;15.90;50.52;94678.31;5020905;28;19971;-67
2023/07/24 03:01:46;;;;;;;;;;;;;;;15.30;52.59;94683.63;5020216;28;19928;-68
2023/07/24 03:04:11;;;;;;;;;;;;;;;15.56;52.02;94672.72;5020519;28;20024;-66
2023/07/24 03:06:38;;;;;;;;;;;;;;;15.56;52.00;94670.03;5020564;28;19924;-67
2023/07/24 03:09:04;;;;;;;;;;;;;;;15.18;53.05;94662.16;5020772;28;19920;-67
2023/07/24 03:11:29;;;;;;;;;;;;;;;15.39;52.82;94654.59;5021267;28;19917;-68
2023/07/24 03:13:54;;;;;;;;;;;;;;;15.43;52.76;94642.38;5020431;28;20020;-68
2023/07/24 03:16:20;;;;;;;;;;;;;;;15.46;52.37;94643.75;5018920;28;20515;-67
2023/07/24 03:18:46;;;;;;;;;;;;;;;15.16;53.31;94634.75;5020037;28;19921;-68
2023/07/24 03:21:11;;;;;;;;;;;;;;;15.42;52.26;94624.66;5020838;28;20368;-67
2023/07/24 03:23:36;;;;;;;;;;;;;;;15.20;53.00;94617.16;5020587;28;19917;-67
2023/07/24 03:26:01;;;;;;;;;;;;;;;15.41;52.98;94625.69;5020742;28;19921;-67
2023/07/24 03:28:27;;;;;;;;;;;;;;;15.41;52.71;94611.47;5020988;28;20407;-68
2023/07/24 03:30:52;;;;;;;;;;;;;;;15.55;52.32;94595.94;5020089;28;20160;-67
2023/07/24 03:33:17;;;;;;;;;;;;;;;15.61;52.26;94608.47;5020995;28;19917;-68
2023/07/24 03:35:42;;;;;;;;;;;;;;;15.72;51.56;94604.94;5020518;28;20000;-67
2023/07/24 03:38:08;;;;;;;;;;;;;;;15.74;51.68;94604.72;5020687;28;19952;-67
2023/07/24 03:40:33;;;;;;;;;;;;;;;15.52;51.91;94597.25;5018136;28;19921;-67
2023/07/24 03:42:58;;;;;;;;;;;;;;;15.54;51.84;94599.69;5020070;28;19925;-68
2023/07/24 03:45:23;;;;;;;;;;;;;;;15.31;52.39;94596.78;5021451;28;20551;-68
2023/07/24 03:47:49;;;;;;;;;;;;;;;15.57;51.48;94594.69;5020379;28;19995;-68
2023/07/24 03:50:14;;;;;;;;;;;;;;;15.47;51.47;94583.72;5020981;28;19939;-67
2023/07/24 03:52:39;;;;;;;;;;;;;;;15.43;51.92;94578.00;5021055;28;19964;-67
2023/07/24 03:55:05;;;;;;;;;;;;;;;15.40;51.88;94567.72;5019847;28;19921;-68
2023/07/24 03:57:30;;;;;;;;;;;;;;;15.48;50.77;94566.56;5020730;28;19921;-67
2023/07/24 03:59:55;;;;;;;;;;;;;;;15.49;51.34;94565.53;5020647;28;19921;-67
2023/07/24 04:02:20;;;;;;;;;;;;;;;15.53;49.25;94573.94;5018394;28;19925;-67
2023/07/24 04:04:46;;;;;;;;;;;;;;;15.55;51.41;94571.81;5016806;28;20020;-67
2023/07/24 04:07:11;;;;;;;;;;;;;;;15.49;50.22;94571.72;5019369;28;20397;-67
2023/07/24 04:09:36;;;;;;;;;;;;;;;15.46;51.06;94577.53;5021033;28;19921;-67
2023/07/24 04:12:01;;;;;;;;;;;;;;;15.25;51.49;94570.91;5020519;28;19925;-67
2023/07/24 04:14:27;;;;;;;;;;;;;;;15.12;52.17;94571.16;5020788;28;19917;-67
2023/07/24 04:16:52;;;;;;;;;;;;;;;15.31;50.93;94574.50;5020645;28;20100;-68
2023/07/24 04:19:17;;;;;;;;;;;;;;;15.39;50.04;94571.47;5020443;28;20298;-67
2023/07/24 04:21:42;;;;;;;;;;;;;;;15.27;51.41;94568.81;5019020;28;20425;-68
2023/07/24 04:24:08;;;;;;;;;;;;;;;15.20;51.79;94568.91;5020774;28;19919;-67
2023/07/24 04:26:33;;;;;;;;;;;;;;;15.39;51.18;94570.66;5020314;28;20007;-67
2023/07/24 04:28:58;;;;;;;;;;;;;;;15.54;50.79;94556.78;5020919;28;20586;-67
2023/07/24 04:31:24;;;;;;;;;;;;;;;15.61;49.95;94560.19;5020349;28;19917;-67
2023/07/24 04:33:49;;;;;;;;;;;;;;;15.73;50.84;94566.34;5020403;28;20004;-67
2023/07/24 04:36:14;;;;;;;;;;;;;;;15.68;51.31;94576.97;5018220;28;19957;-67
2023/07/24 04:38:39;;;;;;;;;;;;;;;15.78;51.01;94578.22;5020448;28;19924;-67
2023/07/24 04:41:04;;;;;;;;;;;;;;;15.96;49.44;94591.50;5020799;28;19917;-68
2023/07/24 04:43:30;;;;;;;;;;;;;;;15.75;48.58;94590.25;5024158;28;20382;-67
2023/07/24 04:45:55;;;;;;;;;;;;;;;15.92;50.22;94595.69;5023894;28;19913;-67
2023/07/24 04:48:20;;;;;;;;;;;;;;;15.95;50.55;94595.19;5023435;28;19916;-68
2023/07/24 04:50:45;;;;;;;;;;;;;;;16.15;49.73;94599.38;5023830;28;19927;-67
2023/07/24 04:53:11;;;;;;;;;;;;;;;16.15;49.97;94603.91;5024159;28;19922;-67
2023/07/24 04:55:36;;;;;;;;;;;;;;;16.36;49.50;94610.53;5023680;28;19929;-67
2023/07/24 04:58:01;;;;;;;;;;;;;;;16.26;50.03;94614.59;5023562;28;19917;-67
2023/07/24 05:00:26;;;;;;;;;;;;;;;16.21;50.23;94616.38;5022551;28;20597;-67
2023/07/24 05:02:52;;;;;;;;;;;;;;;16.16;50.48;94617.09;5023349;28;20042;-68
2023/07/24 05:05:17;;;;;;;;;;;;;;;16.21;49.63;94609.13;5018225;28;19975;-68
2023/07/24 05:07:42;;;;;;;;;;;;;;;16.33;49.18;94597.53;5023386;28;19967;-68
2023/07/24 05:10:07;;;;;;;;;;;;;;;16.28;49.15;94608.19;5022655;28;19932;-68
2023/07/24 05:12:33;;;;;;;;;;;;;;;16.24;50.03;94613.22;5023760;28;20337;-67
2023/07/24 05:14:58;;;;;;;;;;;;;;;16.53;47.98;94613.25;5020821;28;20001;-68
2023/07/24 05:17:23;;;;;;;;;;;;;;;16.90;48.79;94620.09;5018285;28;19969;-68
2023/07/24 05:19:48;;;;;;;;;;;;;;;17.05;48.44;94626.75;5023128;28;19967;-68
2023/07/24 05:22:13;;;;;;;;;;;;;;;16.64;48.78;94625.00;5022375;28;20158;-68
2023/07/24 05:24:39;;;;;;;;;;;;;;;16.95;48.64;94630.09;5023559;28;20413;-68
2023/07/24 05:27:07;;;;;;;;;;;;;;;16.83;47.75;94639.03;5022963;28;19929;-66
2023/07/24 05:29:32;;;;;;;;;;;;;;;16.67;47.69;94632.59;5024007;28;19921;-67
2023/07/24 05:31:58;;;;;;;;;;;;;;;16.96;47.60;94621.78;5023421;28;19917;-68
2023/07/24 05:34:24;;;;;;;;;;;;;;;17.17;45.46;94608.72;5022986;28;20016;-68
2023/07/24 05:36:49;;;;;;;;;;;;;;;16.24;49.45;94608.66;5021611;28;20012;-67
2023/07/24 05:39:14;;;;;;;;;;;;;;;16.96;47.60;94602.97;5023000;28;19923;-68
2023/07/24 05:41:39;;;;;;;;;;;;;;;17.09;47.32;94601.00;5023001;28;20286;-66
2023/07/24 05:44:04;;;;;;;;;;;;;;;17.14;46.35;94598.44;5021887;28;19917;-67
2023/07/24 05:46:30;;;;;;;;;;;;;;;15.91;49.49;94599.41;5022875;28;19948;-67
2023/07/24 05:48:56;;;;;;;;;;;;;;;16.20;49.06;94594.09;5023146;28;19921;-67
2023/07/24 05:51:21;;;;;;;;;;;;;;;16.82;47.83;94597.09;5020663;28;20019;-67
2023/07/24 05:53:46;;;;;;;;;;;;;;;17.45;45.89;94593.53;5022167;28;20025;-67
2023/07/24 05:56:12;;;;;;;;;;;;;;;16.84;47.13;94594.16;5023024;28;19968;-68
2023/07/24 05:58:37;;;;;;;;;;;;;;;16.79;46.83;94588.72;5022415;28;20006;-67
2023/07/24 06:01:03;;;;;;;;;;;;;;;17.00;47.28;94598.72;5021815;28;20104;-68
2023/07/24 06:03:28;;;;;;;;;;;;;;;17.18;45.91;94596.06;5022291;28;20496;-67
2023/07/24 06:05:53;;;;;;;;;;;;;;;16.54;47.39;94589.88;5017172;28;19917;-68
2023/07/24 06:08:19;;;;;;;;;;;;;;;17.88;45.23;94593.06;5022741;28;19921;-67
2023/07/24 06:10:45;;;;;;;;;;;;;;;17.75;45.48;94581.53;5020759;28;19921;-66
2023/07/24 06:13:11;;;;;;;;;;;;;;;17.64;44.07;94595.94;5022251;28;19913;-67
2023/07/24 06:15:36;;;;;;;;;;;;;;;16.12;48.78;94589.09;5022476;28;19932;-68
2023/07/24 06:18:01;;;;;;;;;;;;;;;16.88;46.81;94585.38;5022010;28;19932;-67
2023/07/24 06:20:26;;;;;;;;;;;;;;;17.52;45.04;94596.03;5022197;28;19923;-68
2023/07/24 06:22:51;;;;;;;;;;;;;;;17.51;44.48;94592.53;5022223;28;19968;-68
2023/07/24 06:25:17;;;;;;;;;;;;;;;16.94;45.36;94597.03;5022224;28;19925;-67
2023/07/24 06:27:42;;;;;;;;;;;;;;;17.17;45.00;94597.16;5021976;28;20271;-66
2023/07/24 06:30:07;;;;;;;;;;;;;;;17.39;45.20;94597.19;5019793;28;19921;-66
2023/07/24 06:32:33;;;;;;;;;;;;;;;17.30;44.84;94599.47;5021905;28;19917;-66
2023/07/24 06:34:58;;;;;;;;;;;;;;;17.50;44.95;94601.66;5018883;28;20322;-67
2023/07/24 06:37:23;;;;;;;;;;;;;;;17.01;44.40;94604.94;5022060;28;20017;-67
2023/07/24 06:39:49;;;;;;;;;;;;;;;17.36;44.63;94600.38;5022328;28;19959;-67
2023/07/24 06:42:14;;;;;;;;;;;;;;;17.35;44.99;94593.38;5019461;28;19968;-67
2023/07/24 06:44:39;;;;;;;;;;;;;;;16.54;45.90;94590.72;5022138;28;19928;-67
2023/07/24 06:47:04;;;;;;;;;;;;;;;16.50;47.14;94574.28;5019506;28;20528;-68
2023/07/24 06:49:29;;;;;;;;;;;;;;;16.67;46.96;94572.66;5021521;28;19924;-68
2023/07/24 06:51:55;;;;;;;;;;;;;;;16.32;46.97;94580.59;5022474;28;20004;-67
2023/07/24 06:54:20;;;;;;;;;;;;;;;16.97;45.66;94572.34;5020403;28;19960;-67
2023/07/24 06:56:45;;;;;;;;;;;;;;;16.16;46.60;94576.84;5021703;28;19929;-67
2023/07/24 06:59:10;;;;;;;;;;;;;;;15.42;47.82;94575.56;5020541;28;19960;-68
2023/07/24 07:01:36;;;;;;;;;;;;;;;15.93;48.43;94562.44;5020685;28;19925;-67
2023/07/24 07:04:01;;;;;;;;;;;;;;;15.69;48.03;94565.19;5019491;28;19936;-68
2023/07/24 07:06:26;;;;;;;;;;;;;;;14.90;49.96;94574.38;5017711;28;19924;-67
2023/07/24 07:08:51;;;;;;;;;;;;;;;15.84;48.52;94578.09;5018795;28;19929;-67
2023/07/24 07:11:17;;;;;;;;;;;;;;;15.78;48.61;94564.81;5019489;28;19932;-67
2023/07/24 07:13:42;;;;;;;;;;;;;;;15.41;49.38;94574.75;5020913;28;19925;-67
2023/07/24 07:16:07;;;;;;;;;;;;;;;15.78;49.06;94567.50;5021442;28;20360;-67
2023/07/24 07:18:32;;;;;;;;;;;;;;;15.65;49.54;94579.28;5020879;28;19952;-68
2023/07/24 07:20:58;;;;;;;;;;;;;;;15.51;49.62;94576.00;5020643;28;19921;-67
2023/07/24 07:23:23;;;;;;;;;;;;;;;15.15;50.96;94586.75;5019998;28;19917;-67
2023/07/24 07:25:50;;;;;;;;;;;;;;;14.96;51.12;94584.19;5019864;28;21482;-67
2023/07/24 07:28:16;;;;;;;;;;;;;;;15.19;50.85;94586.06;5020940;28;19909;-67
2023/07/24 07:30:41;;;;;;;;;;;;;;;15.45;51.14;94583.13;5018394;28;20202;-67
2023/07/24 07:33:07;;;;;;;;;;;;;;;15.41;50.54;94569.38;5020788;28;19917;-68
2023/07/24 07:35:32;;;;;;;;;;;;;;;15.40;49.52;94573.09;5018101;28;19925;-68
2023/07/24 07:37:57;;;;;;;;;;;;;;;15.41;50.12;94573.94;5017800;28;19936;-68
2023/07/24 07:40:23;;;;;;;;;;;;;;;15.52;50.02;94580.31;5020647;28;19951;-68
2023/07/24 07:42:48;;;;;;;;;;;;;;;15.71;50.15;94563.06;5016348;28;19925;-68
2023/07/24 07:45:13;;;;;;;;;;;;;;;15.63;50.24;94559.94;5019281;28;19921;-68
2023/07/24 07:47:39;;;;;;;;;;;;;;;15.66;50.52;94565.66;5019780;28;19921;-67
2023/07/24 07:50:04;;;;;;;;;;;;;;;15.99;49.24;94579.44;5018000;28;19976;-67
2023/07/24 07:52:29;;;;;;;;;;;;;;;15.48;50.85;94559.34;5020090;28;20616;-67
2023/07/24 07:54:55;;;;;;;;;;;;;;;15.01;52.08;94564.72;5017161;28;19927;-68
2023/07/24 07:57:20;;;;;;;;;;;;;;;15.06;51.90;94578.25;5019409;28;20020;-66
2023/07/24 07:59:45;;;;;;;;;;;;;;;15.51;50.60;94563.44;5019838;28;20114;-67
2023/07/24 08:02:10;;;;;;;;;;;;;;;15.53;50.95;94565.88;5019633;28;19975;-68
2023/07/24 08:04:35;;;;;;;;;;;;;;;14.95;51.88;94577.16;5018420;28;19936;-67
2023/07/24 08:07:01;;;;;;;;;;;;;;;15.27;51.83;94574.19;5018491;28;20207;-67
2023/07/24 08:09:26;;;;;;;;;;;;;;;15.06;52.00;94578.25;5020346;28;20027;-67
2023/07/24 08:11:51;;;;;;;;;;;;;;;15.05;52.27;94568.56;5018493;28;19928;-67
2023/07/24 08:14:19;;;;;;;;;;;;;;;15.39;51.62;94565.28;5020237;28;19928;-67
2023/07/24 08:16:45;;;;;;;;;;;;;;;15.61;50.32;94573.59;5020851;28;19929;-67
2023/07/24 08:19:10;;;;;;;;;;;;;;;15.65;50.70;94569.38;5022462;28;19962;-67
2023/07/24 08:21:35;;;;;;;;;;;;;;;;;;5021988;28;20055;-67
2023/07/24 08:24:01;;;;;;;;;;;;;;;15.46;50.43;94563.31;5024208;28;19924;-67
2023/07/24 08:26:27;;;;;;;;;;;;;;;15.56;50.51;94557.38;5024166;28;19917;-67
2023/07/24 08:28:52;;;;;;;;;;;;;;;15.72;49.86;94542.41;5022757;28;19925;-67
2023/07/24 08:31:17;;;;;;;;;;;;;;;15.52;50.27;94553.50;5023450;28;19929;-68
2023/07/24 08:33:42;;;;;;;;;;;;;;;16.56;48.25;94561.75;5020619;28;19921;-67
2023/07/24 08:36:08;;;;;;;;;;;;;;;16.73;48.06;94548.31;5023788;28;20070;-67
2023/07/24 08:38:33;;;;;;;;;;;;;;;15.83;49.89;94546.13;5020942;28;19940;-67
2023/07/24 08:41:02;;;;;;;;;;;;;;;16.33;49.86;94549.22;5023054;28;19921;-67
2023/07/24 08:43:27;;;;;;;;;;;;;;;16.40;49.08;94552.59;5023367;28;19921;-67
2023/07/24 08:45:53;;;;;;;;;;;;;;;15.84;49.88;94537.03;5022417;28;19924;-67
2023/07/24 08:48:18;;;;;;;;;;;;;;;15.99;48.99;94523.09;5020686;28;19920;-67
2023/07/24 08:50:43;;;;;;;;;;;;;;;16.63;48.64;94534.72;5020867;28;20007;-68
2023/07/24 08:53:08;;;;;;;;;;;;;;;17.05;47.42;94530.78;5021634;28;19963;-68
2023/07/24 08:55:33;;;;;;;;;;;;;;;16.29;48.43;94534.63;5022562;28;20409;-67
2023/07/24 08:57:59;;;;;;;;;;;;;;;16.25;47.72;94561.16;5037694;28;20292;-67
2023/07/24 09:00:24;;;;;;;;;;;;;;;16.21;49.82;94543.88;5022796;28;20083;-67
2023/07/24 09:02:49;;;;;;;;;;;;;;;16.07;50.11;94533.44;5023460;28;20078;-67
2023/07/24 09:05:15;;;;;;;;;;;;;;;15.86;50.46;94537.59;5022859;28;19936;-67
2023/07/24 09:07:41;;;;;;;;;;;;;;;15.18;52.39;94536.19;5015502;28;19921;-67
2023/07/24 09:10:06;;;;;;;;;;;;;;;15.69;49.97;94545.56;5019986;28;19927;-67
2023/07/24 09:12:31;;;;;;;;;;;;;;;16.05;50.43;94524.00;5022926;28;20040;-68
2023/07/24 09:15:03;;;;;;;;;;;;;;;16.20;50.21;94524.28;5021283;28;19932;-67
2023/07/24 09:17:28;;;;;;;;;;;;;;;16.83;48.39;94526.16;5020960;28;19921;-68
2023/07/24 09:19:57;;;;;;;;;;;;;;;16.52;48.29;94518.41;5020748;28;19921;-67
2023/07/24 09:22:23;;;;;;;;;;;;;;;16.71;47.97;94522.75;5016470;28;19928;-68
2023/07/24 09:24:48;;;;;;;;;;;;;;;17.24;46.80;94512.53;5020551;28;19925;-67
2023/07/24 09:27:14;;;;;;;;;;;;;;;17.15;47.61;94504.09;5020801;28;19921;-67
2023/07/24 09:29:39;;;;;;;;;;;;;;;17.45;45.97;94518.22;5022966;28;19921;-67
2023/07/24 09:32:05;;;;;;;;;;;;;;;17.05;46.37;94509.28;5019708;28;19921;-67
2023/07/24 09:34:30;;;;;;;;;;;;;;;17.13;45.41;94495.44;5022857;28;19927;-67
2023/07/24 09:36:56;;;;;;;;;;;;;;;17.22;47.08;94493.16;5019997;28;20325;-67
2023/07/24 09:39:25;;;;;;;;;;;;;;;16.73;46.20;94505.31;5019196;28;19977;-68
2023/07/24 09:41:50;;;;;;;;;;;;;;;17.00;46.70;94480.44;5022022;28;20287;-67
2023/07/24 09:44:15;;;;;;;;;;;;;;;18.82;42.73;94477.09;5021105;28;19917;-68
2023/07/24 09:46:41;;;;;;;;;;;;;;;18.52;43.28;94475.75;5017100;28;19979;-68
2023/07/24 09:49:06;;;;;;;;;;;;;;;16.35;46.97;94477.31;5020203;28;19928;-68
2023/07/24 09:51:32;;;;;;;;;;;;;;;18.03;43.42;94469.38;5020000;28;19932;-67
2023/07/24 09:54:07;;;;;;;;;;;;;;;18.34;43.43;94468.84;5019916;28;19962;-67
2023/07/24 09:56:32;;;;;;;;;;;;;;;17.86;40.90;94461.41;5020587;28;20016;-67
2023/07/24 09:58:58;;;;;;;;;;;;;;;17.54;42.58;94479.03;5020608;28;20008;-67
2023/07/24 10:01:23;;;;;;;;;;;;;;;16.92;45.83;94474.69;5021083;28;20397;-67
2023/07/24 10:03:49;;;;;;;;;;;;;;;18.34;41.82;94458.06;5021241;28;20008;-68
2023/07/24 10:06:17;;;;;;;;;;;;;;;17.54;40.85;94472.81;5018740;28;19921;-68
2023/07/24 10:08:42;;;;;;;;;;;;;;;17.33;41.52;94471.78;5021028;28;19925;-68
2023/07/24 10:11:08;;;;;;;;;;;;;;;17.13;42.42;94475.81;5033304;28;20151;-67
2023/07/24 10:13:36;;;;;;;;;;;;;;;16.62;43.71;94492.75;5019090;28;19925;-67
2023/07/24 10:16:03;;;;;;;;;;;;;;;17.97;41.42;94473.06;5019833;28;20032;-68
2023/07/24 10:18:29;;;;;;;;;;;;;;;16.99;43.13;94505.72;5021784;28;19982;-67
2023/07/24 10:21:01;;;;;;;;;;;;;;;17.40;42.11;94494.72;5022253;28;20024;-67
2023/07/24 10:23:26;;;;;;;;;;;;;;;17.61;42.76;94484.22;5020864;28;19925;-67
2023/07/24 10:25:52;;;;;;;;;;;;;;;16.92;43.60;94488.13;5021299;28;19913;-68
2023/07/24 10:28:18;;;;;;;;;;;;;;;16.82;43.48;94480.72;5020130;28;19921;-68
2023/07/24 10:30:43;;;;;;;;;;;;;;;17.95;41.17;94482.47;5020646;28;19927;-68
2023/07/24 10:33:09;;;;;;;;;;;;;;;17.35;42.66;94472.34;5019926;28;20003;-68
2023/07/24 10:35:38;;;;;;;;;;;;;;;17.97;41.96;94462.31;5018325;28;20305;-68
2023/07/24 10:38:04;;;;;;;;;;;;;;;17.94;42.53;94472.78;5015542;28;19921;-68
2023/07/24 10:40:30;;;;;;;;;;;;;;;17.63;43.28;94475.91;5016461;28;19947;-68
2023/07/24 10:43:05;;;;;;;;;;;;;;;17.86;42.63;94479.41;5019774;28;19949;-67
2023/07/24 10:45:46;;;;;;;;;;;;;;;18.25;40.91;94476.56;5015016;28;19921;-68
2023/07/24 10:48:11;;;;;;;;;;;;;;;17.96;41.69;94467.94;5018734;28;19929;-68
2023/07/24 10:50:40;;;;;;;;;;;;;;;17.53;42.34;94474.72;5020200;28;19978;-67
2023/07/24 10:53:05;;;;;;;;;;;;;;;18.22;40.34;94478.97;5018276;28;20285;-69
2023/07/24 10:55:30;;;;;;;;;;;;;;;18.95;40.91;94465.03;5018426;28;19932;-67
2023/07/24 10:57:56;;;;;;;;;;;;;;;19.33;39.01;94461.50;5019050;28;20656;-67
2023/07/24 11:00:21;;;;;;;;;;;;;;;19.89;37.46;94457.38;5020342;28;20438;-69
2023/07/24 11:02:46;;;;;;;;;;;;;;;18.71;38.61;94478.06;5020308;28;20038;-68
2023/07/24 11:05:12;;;;;;;;;;;;;;;20.33;36.56;94472.34;5014182;28;20451;-69
2023/07/24 11:07:37;;;;;;;;;;;;;;;20.77;35.61;94477.53;5021154;28;19929;-69
2023/07/24 11:10:02;;;;;;;;;;;;;;;20.82;35.65;94466.69;5020036;28;19931;-68
2023/07/24 11:12:30;;;;;;;;;;;;;;;21.05;35.42;94465.31;5021619;28;19909;-67
2023/07/24 11:14:56;;;;;;;;;;;;;;;19.85;36.20;94461.66;5020309;28;20006;-68
2023/07/24 11:17:21;;;;;;;;;;;;;;;20.73;34.27;94463.72;5017214;28;20123;-67
2023/07/24 11:19:46;;;;;;;;;;;;;;;21.61;33.77;94452.72;5034395;28;20070;-69
2023/07/24 11:22:12;;;;;;;;;;;;;;;21.39;33.48;94458.50;5019280;28;19921;-67
2023/07/24 11:24:44;;;;;;;;;;;;;;;20.92;33.33;94457.75;5021495;28;19997;-68
2023/07/24 11:27:12;;;;;;;;;;;;;;;21.19;33.47;94454.72;5018789;28;20083;-67
2023/07/24 11:29:37;;;;;;;;;;;;;;;19.77;35.50;94444.13;5019778;28;19918;-67
2023/07/24 11:32:03;;;;;;;;;;;;;;;18.65;37.62;94444.06;5020397;28;19926;-68
2023/07/24 11:34:28;;;;;;;;;;;;;;;19.35;37.41;94445.03;5018129;28;20039;-68
2023/07/24 11:36:54;;;;;;;;;;;;;;;19.94;35.54;94430.38;5017341;28;19995;-68
2023/07/24 11:39:22;;;;;;;;;;;;;;;17.54;40.11;94427.91;5018254;28;19921;-68
2023/07/24 11:41:48;;;;;;;;;;;;;;;18.54;37.86;94432.38;5019277;28;19928;-69
2023/07/24 11:44:16;;;;;;;;;;;;;;;18.45;38.10;94423.94;5017735;28;20369;-68
2023/07/24 11:46:41;;;;;;;;;;;;;;;19.45;35.45;94416.19;5019097;28;20412;-67
2023/07/24 11:49:07;;;;;;;;;;;;;;;19.89;34.36;94429.56;5020902;28;19917;-67
2023/07/24 11:51:33;;;;;;;;;;;;;;;19.56;35.60;94419.75;5016135;28;19928;-68
2023/07/24 11:54:06;;;;;;;;;;;;;;;19.38;36.27;94417.53;5015153;28;19935;-68
2023/07/24 11:56:31;;;;;;;;;;;;;;;20.67;34.12;94402.63;5013024;28;19925;-68
2023/07/24 11:58:57;;;;;;;;;;;;;;;21.95;31.49;94415.19;5018261;28;19921;-68
2023/07/24 12:01:22;;;;;;;;;;;;;;;18.99;35.63;94415.97;5016291;28;19921;-67
2023/07/24 12:03:49;;;;;;;;;;;;;;;18.16;36.31;94413.47;5021540;28;19929;-67
2023/07/24 12:06:15;;;;;;;;;;;;;;;18.77;36.13;94396.16;5017107;28;20046;-68
2023/07/24 12:08:41;;;;;;;;;;;;;;;19.30;34.66;94410.75;5020439;28;20145;-68
2023/07/24 12:11:15;;;;;;;;;;;;;;;19.12;35.45;94388.53;5014976;28;20455;-68
2023/07/24 12:13:40;;;;;;;;;;;;;;;17.96;37.39;94392.56;5034859;28;19916;-68
2023/07/24 12:16:05;;;;;;;;;;;;;;;20.12;35.01;94371.53;5015598;28;20558;-68
2023/07/24 12:18:30;;;;;;;;;;;;;;;20.51;33.88;94385.59;5018566;28;20626;-68
2023/07/24 12:20:55;;;;;;;;;;;;;;;20.71;33.96;94357.75;5019917;28;20039;-68
2023/07/24 12:23:21;;;;;;;;;;;;;;;21.11;33.60;94353.28;5019776;28;19959;-68
2023/07/24 12:25:47;;;;;;;;;;;;;;;21.68;32.42;94373.09;5016356;28;19925;-68
2023/07/24 12:28:12;;;;;;;;;;;;;;;21.16;33.28;94362.47;5019100;28;20116;-67
2023/07/24 12:30:37;;;;;;;;;;;;;;;22.14;31.49;94347.59;5019037;28;19978;-69
2023/07/24 12:33:03;;;;;;;;;;;;;;;22.98;29.67;94350.34;5018255;28;19979;-67
2023/07/24 12:35:28;;;;;;;;;;;;;;;23.17;29.91;94355.84;5019852;28;20442;-68
2023/07/24 12:37:53;;;;;;;;;;;;;;;23.07;30.24;94355.97;5019465;28;19951;-68
2023/07/24 12:40:18;;;;;;;;;;;;;;;22.99;29.83;94358.22;5016112;28;19979;-68